sensor_id;sensor_type;location;lat;lon;timestamp;P1;durP1;ratioP1;P2;durP2;ratioP2
5841;SDS011;2947;52.276;9.946;2022-07-29T00:00:05;6.32;;;1.42;;
5841;SDS011;2947;52.276;9.946;2022-07-29T00:02:33;5.35;;;1.17;;
5841;SDS011;2947;52.276;9.946;2022-07-29T00:04:59;3.63;;;1.35;;
5841;SDS011;2947;52.276;9.946;2022-07-29T00:07:25;6.63;;;1.48;;
5841;SDS011;2947;52.276;9.946;2022-07-29T00:09:50;2.10;;;1.27;;
5841;SDS011;2947;52.276;9.946;2022-07-29T00:12:16;2.45;;;1.05;;
5841;SDS011;2947;52.276;9.946;2022-07-29T00:14:42;3.30;;;1.35;;
5841;SDS011;2947;52.276;9.946;2022-07-29T00:17:08;1.92;;;1.13;;
5841;SDS011;2947;52.276;9.946;2022-07-29T00:19:34;3.15;;;1.30;;
5841;SDS011;2947;52.276;9.946;2022-07-29T00:22:00;3.60;;;1.38;;
5841;SDS011;2947;52.276;9.946;2022-07-29T00:24:26;2.15;;;1.30;;
5841;SDS011;2947;52.276;9.946;2022-07-29T00:26:52;4.90;;;1.52;;
5841;SDS011;2947;52.276;9.946;2022-07-29T00:29:18;5.57;;;1.40;;
5841;SDS011;2947;52.276;9.946;2022-07-29T00:31:44;8.52;;;1.35;;
5841;SDS011;2947;52.276;9.946;2022-07-29T00:34:10;3.90;;;1.13;;
5841;SDS011;2947;52.276;9.946;2022-07-29T00:36:56;6.50;;;1.45;;
5841;SDS011;2947;52.276;9.946;2022-07-29T00:39:22;4.57;;;1.45;;
5841;SDS011;2947;52.276;9.946;2022-07-29T00:41:48;4.22;;;1.52;;
5841;SDS011;2947;52.276;9.946;2022-07-29T00:44:14;5.72;;;1.55;;
5841;SDS011;2947;52.276;9.946;2022-07-29T00:46:39;6.82;;;1.10;;
5841;SDS011;2947;52.276;9.946;2022-07-29T00:49:05;4.28;;;1.02;;
5841;SDS011;2947;52.276;9.946;2022-07-29T00:51:32;4.05;;;0.90;;
5841;SDS011;2947;52.276;9.946;2022-07-29T00:54:02;3.80;;;1.25;;
5841;SDS011;2947;52.276;9.946;2022-07-29T00:56:32;2.38;;;1.02;;
5841;SDS011;2947;52.276;9.946;2022-07-29T00:58:58;3.13;;;0.90;;
5841;SDS011;2947;52.276;9.946;2022-07-29T01:01:25;4.30;;;1.17;;
5841;SDS011;2947;52.276;9.946;2022-07-29T01:03:51;5.53;;;1.45;;
5841;SDS011;2947;52.276;9.946;2022-07-29T01:06:18;2.63;;;1.17;;
5841;SDS011;2947;52.276;9.946;2022-07-29T01:08:47;4.70;;;1.20;;
5841;SDS011;2947;52.276;9.946;2022-07-29T01:11:16;2.78;;;1.48;;
5841;SDS011;2947;52.276;9.946;2022-07-29T01:13:43;3.67;;;1.00;;
5841;SDS011;2947;52.276;9.946;2022-07-29T01:16:13;6.93;;;1.30;;
5841;SDS011;2947;52.276;9.946;2022-07-29T01:19:00;5.22;;;1.00;;
5841;SDS011;2947;52.276;9.946;2022-07-29T01:21:54;3.15;;;1.02;;
5841;SDS011;2947;52.276;9.946;2022-07-29T01:24:30;19.45;;;1.83;;
5841;SDS011;2947;52.276;9.946;2022-07-29T01:27:46;7.95;;;1.35;;
5841;SDS011;2947;52.276;9.946;2022-07-29T01:30:24;6.55;;;1.30;;
5841;SDS011;2947;52.276;9.946;2022-07-29T01:32:54;2.80;;;1.50;;
5841;SDS011;2947;52.276;9.946;2022-07-29T01:35:25;4.95;;;1.27;;
5841;SDS011;2947;52.276;9.946;2022-07-29T01:40:52;4.10;;;1.77;;
5841;SDS011;2947;52.276;9.946;2022-07-29T01:43:31;3.42;;;1.40;;
5841;SDS011;2947;52.276;9.946;2022-07-29T01:46:09;2.55;;;1.30;;
5841;SDS011;2947;52.276;9.946;2022-07-29T01:48:53;8.55;;;1.63;;
5841;SDS011;2947;52.276;9.946;2022-07-29T01:51:31;5.43;;;1.50;;
5841;SDS011;2947;52.276;9.946;2022-07-29T01:54:14;4.55;;;1.27;;
5841;SDS011;2947;52.276;9.946;2022-07-29T01:56:51;2.95;;;1.50;;
5841;SDS011;2947;52.276;9.946;2022-07-29T01:59:21;4.97;;;1.42;;
5841;SDS011;2947;52.276;9.946;2022-07-29T02:01:48;6.10;;;1.60;;
5841;SDS011;2947;52.276;9.946;2022-07-29T02:04:18;3.78;;;1.38;;
5841;SDS011;2947;52.276;9.946;2022-07-29T02:06:45;6.05;;;1.35;;
5841;SDS011;2947;52.276;9.946;2022-07-29T02:09:14;6.05;;;1.45;;
5841;SDS011;2947;52.276;9.946;2022-07-29T02:11:41;8.52;;;1.27;;
5841;SDS011;2947;52.276;9.946;2022-07-29T02:14:15;4.57;;;1.50;;
5841;SDS011;2947;52.276;9.946;2022-07-29T02:16:44;3.47;;;1.95;;
5841;SDS011;2947;52.276;9.946;2022-07-29T02:19:12;3.08;;;1.20;;
5841;SDS011;2947;52.276;9.946;2022-07-29T02:21:39;3.15;;;1.17;;
5841;SDS011;2947;52.276;9.946;2022-07-29T02:24:05;7.10;;;1.40;;
5841;SDS011;2947;52.276;9.946;2022-07-29T02:26:32;3.80;;;1.05;;
5841;SDS011;2947;52.276;9.946;2022-07-29T02:28:59;6.18;;;1.13;;
5841;SDS011;2947;52.276;9.946;2022-07-29T02:31:26;7.03;;;1.33;;
5841;SDS011;2947;52.276;9.946;2022-07-29T02:33:58;6.25;;;1.60;;
5841;SDS011;2947;52.276;9.946;2022-07-29T02:36:27;5.43;;;1.05;;
5841;SDS011;2947;52.276;9.946;2022-07-29T02:38:55;3.55;;;1.30;;
5841;SDS011;2947;52.276;9.946;2022-07-29T02:41:44;3.65;;;1.25;;
5841;SDS011;2947;52.276;9.946;2022-07-29T02:44:16;2.50;;;1.13;;
5841;SDS011;2947;52.276;9.946;2022-07-29T02:52:03;3.33;;;0.98;;
5841;SDS011;2947;52.276;9.946;2022-07-29T02:57:41;6.72;;;1.30;;
5841;SDS011;2947;52.276;9.946;2022-07-29T03:00:31;8.55;;;1.08;;
5841;SDS011;2947;52.276;9.946;2022-07-29T03:03:03;1.75;;;1.17;;
5841;SDS011;2947;52.276;9.946;2022-07-29T03:05:33;2.58;;;1.00;;
5841;SDS011;2947;52.276;9.946;2022-07-29T03:08:04;4.82;;;1.10;;
5841;SDS011;2947;52.276;9.946;2022-07-29T03:10:32;2.67;;;1.23;;
5841;SDS011;2947;52.276;9.946;2022-07-29T03:12:58;1.98;;;1.00;;
5841;SDS011;2947;52.276;9.946;2022-07-29T03:15:25;7.28;;;1.15;;
5841;SDS011;2947;52.276;9.946;2022-07-29T03:17:52;5.05;;;1.80;;
5841;SDS011;2947;52.276;9.946;2022-07-29T03:20:20;5.03;;;1.48;;
5841;SDS011;2947;52.276;9.946;2022-07-29T03:22:46;4.00;;;0.88;;
5841;SDS011;2947;52.276;9.946;2022-07-29T03:25:13;5.88;;;1.40;;
5841;SDS011;2947;52.276;9.946;2022-07-29T03:27:42;6.55;;;2.20;;
5841;SDS011;2947;52.276;9.946;2022-07-29T03:30:09;2.28;;;1.30;;
5841;SDS011;2947;52.276;9.946;2022-07-29T03:32:36;3.22;;;1.35;;
5841;SDS011;2947;52.276;9.946;2022-07-29T03:35:03;3.83;;;1.30;;
5841;SDS011;2947;52.276;9.946;2022-07-29T03:37:30;4.60;;;1.70;;
5841;SDS011;2947;52.276;9.946;2022-07-29T03:39:56;5.10;;;1.45;;
5841;SDS011;2947;52.276;9.946;2022-07-29T03:42:24;3.33;;;1.48;;
5841;SDS011;2947;52.276;9.946;2022-07-29T03:44:54;6.85;;;1.92;;
5841;SDS011;2947;52.276;9.946;2022-07-29T03:47:22;6.63;;;1.80;;
5841;SDS011;2947;52.276;9.946;2022-07-29T03:49:53;7.35;;;1.50;;
5841;SDS011;2947;52.276;9.946;2022-07-29T03:52:32;5.70;;;1.70;;
5841;SDS011;2947;52.276;9.946;2022-07-29T03:54:58;7.88;;;1.88;;
5841;SDS011;2947;52.276;9.946;2022-07-29T03:57:24;1.70;;;1.30;;
5841;SDS011;2947;52.276;9.946;2022-07-29T03:59:52;8.00;;;1.73;;
5841;SDS011;2947;52.276;9.946;2022-07-29T04:02:18;2.60;;;1.80;;
5841;SDS011;2947;52.276;9.946;2022-07-29T04:04:45;7.43;;;1.67;;
5841;SDS011;2947;52.276;9.946;2022-07-29T04:07:14;3.95;;;1.83;;
5841;SDS011;2947;52.276;9.946;2022-07-29T04:09:40;2.85;;;1.33;;
5841;SDS011;2947;52.276;9.946;2022-07-29T04:12:06;5.50;;;1.52;;
5841;SDS011;2947;52.276;9.946;2022-07-29T04:14:33;11.52;;;1.63;;
5841;SDS011;2947;52.276;9.946;2022-07-29T04:17:00;3.83;;;1.52;;
5841;SDS011;2947;52.276;9.946;2022-07-29T04:19:27;3.03;;;1.35;;
5841;SDS011;2947;52.276;9.946;2022-07-29T04:21:53;3.05;;;1.38;;
5841;SDS011;2947;52.276;9.946;2022-07-29T04:24:18;2.92;;;1.35;;
5841;SDS011;2947;52.276;9.946;2022-07-29T04:26:47;3.00;;;1.00;;
5841;SDS011;2947;52.276;9.946;2022-07-29T04:29:13;3.03;;;1.40;;
5841;SDS011;2947;52.276;9.946;2022-07-29T04:31:39;5.38;;;2.03;;
5841;SDS011;2947;52.276;9.946;2022-07-29T04:34:06;4.72;;;1.60;;
5841;SDS011;2947;52.276;9.946;2022-07-29T04:36:32;6.78;;;1.58;;
5841;SDS011;2947;52.276;9.946;2022-07-29T04:38:58;4.97;;;1.33;;
5841;SDS011;2947;52.276;9.946;2022-07-29T04:41:25;3.72;;;1.45;;
5841;SDS011;2947;52.276;9.946;2022-07-29T04:43:52;7.13;;;1.70;;
5841;SDS011;2947;52.276;9.946;2022-07-29T04:46:17;4.07;;;1.70;;
5841;SDS011;2947;52.276;9.946;2022-07-29T04:48:45;3.90;;;1.15;;
5841;SDS011;2947;52.276;9.946;2022-07-29T04:51:11;5.72;;;1.30;;
5841;SDS011;2947;52.276;9.946;2022-07-29T04:53:37;2.90;;;1.45;;
5841;SDS011;2947;52.276;9.946;2022-07-29T04:56:03;7.22;;;1.67;;
5841;SDS011;2947;52.276;9.946;2022-07-29T04:58:29;3.72;;;1.40;;
5841;SDS011;2947;52.276;9.946;2022-07-29T05:00:55;3.50;;;1.15;;
5841;SDS011;2947;52.276;9.946;2022-07-29T05:03:21;4.78;;;1.42;;
5841;SDS011;2947;52.276;9.946;2022-07-29T05:05:46;3.22;;;1.40;;
5841;SDS011;2947;52.276;9.946;2022-07-29T05:08:12;5.28;;;1.55;;
5841;SDS011;2947;52.276;9.946;2022-07-29T05:10:38;4.57;;;1.60;;
5841;SDS011;2947;52.276;9.946;2022-07-29T05:13:04;6.45;;;1.73;;
5841;SDS011;2947;52.276;9.946;2022-07-29T05:15:31;2.85;;;1.77;;
5841;SDS011;2947;52.276;9.946;2022-07-29T05:17:59;5.22;;;1.40;;
5841;SDS011;2947;52.276;9.946;2022-07-29T05:20:26;8.73;;;1.67;;
5841;SDS011;2947;52.276;9.946;2022-07-29T05:22:57;5.57;;;2.00;;
5841;SDS011;2947;52.276;9.946;2022-07-29T05:25:24;3.45;;;1.65;;
5841;SDS011;2947;52.276;9.946;2022-07-29T05:27:51;3.05;;;1.50;;
5841;SDS011;2947;52.276;9.946;2022-07-29T05:30:17;7.95;;;1.55;;
5841;SDS011;2947;52.276;9.946;2022-07-29T05:32:43;6.25;;;1.75;;
5841;SDS011;2947;52.276;9.946;2022-07-29T05:35:09;4.53;;;1.92;;
5841;SDS011;2947;52.276;9.946;2022-07-29T05:37:36;3.75;;;1.65;;
5841;SDS011;2947;52.276;9.946;2022-07-29T05:40:02;5.20;;;1.90;;
5841;SDS011;2947;52.276;9.946;2022-07-29T05:42:29;4.05;;;2.10;;
5841;SDS011;2947;52.276;9.946;2022-07-29T05:44:55;2.03;;;1.50;;
5841;SDS011;2947;52.276;9.946;2022-07-29T05:47:21;9.55;;;2.17;;
5841;SDS011;2947;52.276;9.946;2022-07-29T05:49:47;11.25;;;1.90;;
5841;SDS011;2947;52.276;9.946;2022-07-29T05:52:13;8.02;;;1.70;;
5841;SDS011;2947;52.276;9.946;2022-07-29T05:54:40;4.45;;;1.75;;
5841;SDS011;2947;52.276;9.946;2022-07-29T05:57:05;5.53;;;1.77;;
5841;SDS011;2947;52.276;9.946;2022-07-29T05:59:35;3.58;;;1.90;;
5841;SDS011;2947;52.276;9.946;2022-07-29T06:02:01;3.83;;;1.38;;
5841;SDS011;2947;52.276;9.946;2022-07-29T06:04:29;4.88;;;1.70;;
5841;SDS011;2947;52.276;9.946;2022-07-29T06:06:56;5.32;;;2.10;;
5841;SDS011;2947;52.276;9.946;2022-07-29T06:09:22;6.13;;;1.90;;
5841;SDS011;2947;52.276;9.946;2022-07-29T06:11:48;7.35;;;2.10;;
5841;SDS011;2947;52.276;9.946;2022-07-29T06:14:14;6.68;;;1.77;;
5841;SDS011;2947;52.276;9.946;2022-07-29T06:16:39;6.07;;;1.75;;
5841;SDS011;2947;52.276;9.946;2022-07-29T06:19:06;7.53;;;1.50;;
5841;SDS011;2947;52.276;9.946;2022-07-29T06:21:31;13.30;;;2.17;;
5841;SDS011;2947;52.276;9.946;2022-07-29T06:23:58;11.27;;;2.53;;
5841;SDS011;2947;52.276;9.946;2022-07-29T06:26:24;5.82;;;2.05;;
5841;SDS011;2947;52.276;9.946;2022-07-29T06:28:50;4.70;;;2.05;;
5841;SDS011;2947;52.276;9.946;2022-07-29T06:31:16;3.83;;;2.63;;
5841;SDS011;2947;52.276;9.946;2022-07-29T06:33:41;6.60;;;2.35;;
5841;SDS011;2947;52.276;9.946;2022-07-29T06:36:07;10.27;;;2.17;;
5841;SDS011;2947;52.276;9.946;2022-07-29T06:38:33;4.80;;;1.83;;
5841;SDS011;2947;52.276;9.946;2022-07-29T06:40:59;3.10;;;1.70;;
5841;SDS011;2947;52.276;9.946;2022-07-29T06:43:37;8.60;;;1.92;;
5841;SDS011;2947;52.276;9.946;2022-07-29T06:46:09;11.10;;;2.38;;
5841;SDS011;2947;52.276;9.946;2022-07-29T06:48:37;5.50;;;1.70;;
5841;SDS011;2947;52.276;9.946;2022-07-29T06:51:05;9.35;;;2.75;;
5841;SDS011;2947;52.276;9.946;2022-07-29T06:53:32;5.93;;;2.08;;
5841;SDS011;2947;52.276;9.946;2022-07-29T06:55:58;5.32;;;2.28;;
5841;SDS011;2947;52.276;9.946;2022-07-29T06:58:25;5.20;;;1.80;;
5841;SDS011;2947;52.276;9.946;2022-07-29T07:00:53;5.90;;;2.40;;
5841;SDS011;2947;52.276;9.946;2022-07-29T07:03:18;4.07;;;2.10;;
5841;SDS011;2947;52.276;9.946;2022-07-29T07:05:45;3.38;;;2.10;;
5841;SDS011;2947;52.276;9.946;2022-07-29T07:08:11;6.85;;;1.80;;
5841;SDS011;2947;52.276;9.946;2022-07-29T07:10:38;4.15;;;2.00;;
5841;SDS011;2947;52.276;9.946;2022-07-29T07:13:05;3.65;;;2.03;;
5841;SDS011;2947;52.276;9.946;2022-07-29T07:15:31;5.10;;;2.08;;
5841;SDS011;2947;52.276;9.946;2022-07-29T07:17:57;6.03;;;2.35;;
5841;SDS011;2947;52.276;9.946;2022-07-29T07:20:23;11.88;;;2.45;;
5841;SDS011;2947;52.276;9.946;2022-07-29T07:22:49;7.22;;;2.50;;
5841;SDS011;2947;52.276;9.946;2022-07-29T07:25:15;5.38;;;2.10;;
5841;SDS011;2947;52.276;9.946;2022-07-29T07:27:42;5.45;;;2.00;;
5841;SDS011;2947;52.276;9.946;2022-07-29T07:30:09;7.93;;;2.25;;
5841;SDS011;2947;52.276;9.946;2022-07-29T07:32:36;6.65;;;2.25;;
5841;SDS011;2947;52.276;9.946;2022-07-29T07:35:06;3.78;;;1.92;;
5841;SDS011;2947;52.276;9.946;2022-07-29T07:37:33;4.45;;;2.47;;
5841;SDS011;2947;52.276;9.946;2022-07-29T07:39:59;4.72;;;2.55;;
5841;SDS011;2947;52.276;9.946;2022-07-29T07:42:26;5.68;;;2.60;;
5841;SDS011;2947;52.276;9.946;2022-07-29T07:44:51;8.75;;;2.55;;
5841;SDS011;2947;52.276;9.946;2022-07-29T07:47:17;7.30;;;2.65;;
5841;SDS011;2947;52.276;9.946;2022-07-29T07:49:48;12.98;;;3.17;;
5841;SDS011;2947;52.276;9.946;2022-07-29T07:52:18;10.68;;;2.88;;
5841;SDS011;2947;52.276;9.946;2022-07-29T07:54:45;5.05;;;2.20;;
5841;SDS011;2947;52.276;9.946;2022-07-29T07:57:12;5.13;;;2.20;;
5841;SDS011;2947;52.276;9.946;2022-07-29T07:59:39;7.15;;;2.53;;
5841;SDS011;2947;52.276;9.946;2022-07-29T08:02:05;5.45;;;2.70;;
5841;SDS011;2947;52.276;9.946;2022-07-29T08:04:31;10.95;;;2.60;;
5841;SDS011;2947;52.276;9.946;2022-07-29T08:06:57;5.18;;;2.42;;
5841;SDS011;2947;52.276;9.946;2022-07-29T08:09:24;4.80;;;2.42;;
5841;SDS011;2947;52.276;9.946;2022-07-29T08:11:52;10.50;;;2.40;;
5841;SDS011;2947;52.276;9.946;2022-07-29T08:14:18;10.50;;;2.63;;
5841;SDS011;2947;52.276;9.946;2022-07-29T08:16:44;8.95;;;2.53;;
5841;SDS011;2947;52.276;9.946;2022-07-29T08:19:11;9.48;;;2.42;;
5841;SDS011;2947;52.276;9.946;2022-07-29T08:21:37;9.63;;;2.70;;
5841;SDS011;2947;52.276;9.946;2022-07-29T08:24:03;8.57;;;3.05;;
5841;SDS011;2947;52.276;9.946;2022-07-29T08:26:48;9.02;;;2.38;;
5841;SDS011;2947;52.276;9.946;2022-07-29T08:29:14;9.15;;;2.65;;
5841;SDS011;2947;52.276;9.946;2022-07-29T08:31:41;11.20;;;3.00;;
5841;SDS011;2947;52.276;9.946;2022-07-29T08:34:07;19.27;;;3.60;;
5841;SDS011;2947;52.276;9.946;2022-07-29T08:36:33;6.78;;;3.05;;
5841;SDS011;2947;52.276;9.946;2022-07-29T08:38:59;6.93;;;2.03;;
5841;SDS011;2947;52.276;9.946;2022-07-29T08:41:26;6.50;;;2.53;;
5841;SDS011;2947;52.276;9.946;2022-07-29T08:43:52;7.93;;;2.78;;
5841;SDS011;2947;52.276;9.946;2022-07-29T08:46:19;6.97;;;2.28;;
5841;SDS011;2947;52.276;9.946;2022-07-29T08:48:46;8.85;;;2.53;;
5841;SDS011;2947;52.276;9.946;2022-07-29T08:51:16;11.57;;;2.72;;
5841;SDS011;2947;52.276;9.946;2022-07-29T08:53:45;9.05;;;2.50;;
5841;SDS011;2947;52.276;9.946;2022-07-29T08:56:17;6.30;;;2.78;;
5841;SDS011;2947;52.276;9.946;2022-07-29T08:58:44;6.88;;;2.58;;
5841;SDS011;2947;52.276;9.946;2022-07-29T09:01:13;6.93;;;2.70;;
5841;SDS011;2947;52.276;9.946;2022-07-29T09:03:43;6.68;;;2.75;;
5841;SDS011;2947;52.276;9.946;2022-07-29T09:06:11;4.88;;;2.65;;
5841;SDS011;2947;52.276;9.946;2022-07-29T09:08:39;5.50;;;2.00;;
5841;SDS011;2947;52.276;9.946;2022-07-29T09:11:06;7.25;;;2.60;;
5841;SDS011;2947;52.276;9.946;2022-07-29T09:13:32;7.03;;;2.58;;
5841;SDS011;2947;52.276;9.946;2022-07-29T09:15:59;5.20;;;2.65;;
5841;SDS011;2947;52.276;9.946;2022-07-29T09:18:32;10.10;;;3.25;;
5841;SDS011;2947;52.276;9.946;2022-07-29T09:21:07;5.35;;;2.40;;
5841;SDS011;2947;52.276;9.946;2022-07-29T09:26:32;6.95;;;2.20;;
5841;SDS011;2947;52.276;9.946;2022-07-29T09:29:08;6.88;;;2.33;;
5841;SDS011;2947;52.276;9.946;2022-07-29T09:31:40;5.90;;;2.63;;
5841;SDS011;2947;52.276;9.946;2022-07-29T09:34:09;6.85;;;2.80;;
5841;SDS011;2947;52.276;9.946;2022-07-29T09:36:38;7.00;;;2.75;;
5841;SDS011;2947;52.276;9.946;2022-07-29T09:39:13;6.78;;;3.20;;
5841;SDS011;2947;52.276;9.946;2022-07-29T09:41:53;7.55;;;2.70;;
5841;SDS011;2947;52.276;9.946;2022-07-29T09:44:24;5.22;;;2.67;;
5841;SDS011;2947;52.276;9.946;2022-07-29T09:46:54;9.52;;;2.85;;
5841;SDS011;2947;52.276;9.946;2022-07-29T09:49:30;5.38;;;2.00;;
5841;SDS011;2947;52.276;9.946;2022-07-29T09:52:06;5.57;;;3.03;;
5841;SDS011;2947;52.276;9.946;2022-07-29T09:54:34;7.78;;;2.70;;
5841;SDS011;2947;52.276;9.946;2022-07-29T09:57:02;7.35;;;3.40;;
5841;SDS011;2947;52.276;9.946;2022-07-29T09:59:29;6.28;;;2.60;;
5841;SDS011;2947;52.276;9.946;2022-07-29T10:01:55;9.15;;;2.70;;
5841;SDS011;2947;52.276;9.946;2022-07-29T10:04:21;12.20;;;2.75;;
5841;SDS011;2947;52.276;9.946;2022-07-29T10:06:57;7.28;;;2.53;;
5841;SDS011;2947;52.276;9.946;2022-07-29T10:09:25;7.25;;;2.35;;
5841;SDS011;2947;52.276;9.946;2022-07-29T10:12:04;9.43;;;2.53;;
5841;SDS011;2947;52.276;9.946;2022-07-29T10:14:36;10.57;;;2.97;;
5841;SDS011;2947;52.276;9.946;2022-07-29T10:17:04;7.97;;;2.58;;
5841;SDS011;2947;52.276;9.946;2022-07-29T10:19:32;5.88;;;2.50;;
5841;SDS011;2947;52.276;9.946;2022-07-29T10:21:59;8.85;;;2.92;;
5841;SDS011;2947;52.276;9.946;2022-07-29T10:24:28;8.52;;;2.97;;
5841;SDS011;2947;52.276;9.946;2022-07-29T10:26:56;6.18;;;2.35;;
5841;SDS011;2947;52.276;9.946;2022-07-29T10:29:24;11.90;;;2.78;;
5841;SDS011;2947;52.276;9.946;2022-07-29T10:32:15;8.10;;;2.50;;
5841;SDS011;2947;52.276;9.946;2022-07-29T10:37:33;6.30;;;2.72;;
5841;SDS011;2947;52.276;9.946;2022-07-29T10:40:17;4.28;;;2.17;;
5841;SDS011;2947;52.276;9.946;2022-07-29T10:43:19;5.88;;;2.08;;
5841;SDS011;2947;52.276;9.946;2022-07-29T10:45:55;6.28;;;2.22;;
5841;SDS011;2947;52.276;9.946;2022-07-29T10:48:23;10.65;;;2.72;;
5841;SDS011;2947;52.276;9.946;2022-07-29T10:53:23;7.82;;;2.85;;
5841;SDS011;2947;52.276;9.946;2022-07-29T10:55:50;8.20;;;2.67;;
5841;SDS011;2947;52.276;9.946;2022-07-29T10:58:21;5.03;;;2.95;;
5841;SDS011;2947;52.276;9.946;2022-07-29T11:00:49;8.77;;;2.78;;
5841;SDS011;2947;52.276;9.946;2022-07-29T11:06:13;8.25;;;2.67;;
5841;SDS011;2947;52.276;9.946;2022-07-29T11:08:39;8.27;;;2.67;;
5841;SDS011;2947;52.276;9.946;2022-07-29T11:16:17;4.45;;;2.63;;
5841;SDS011;2947;52.276;9.946;2022-07-29T11:19:18;13.63;;;3.53;;
5841;SDS011;2947;52.276;9.946;2022-07-29T11:21:43;8.30;;;2.55;;
5841;SDS011;2947;52.276;9.946;2022-07-29T11:24:20;6.28;;;2.20;;
5841;SDS011;2947;52.276;9.946;2022-07-29T11:29:56;6.18;;;2.55;;
5841;SDS011;2947;52.276;9.946;2022-07-29T11:32:28;4.05;;;2.22;;
5841;SDS011;2947;52.276;9.946;2022-07-29T11:35:18;8.35;;;2.35;;
5841;SDS011;2947;52.276;9.946;2022-07-29T11:43:51;7.65;;;2.55;;
5841;SDS011;2947;52.276;9.946;2022-07-29T11:49:23;6.72;;;2.42;;
5841;SDS011;2947;52.276;9.946;2022-07-29T11:51:54;7.03;;;3.08;;
5841;SDS011;2947;52.276;9.946;2022-07-29T11:54:26;6.90;;;2.40;;
5841;SDS011;2947;52.276;9.946;2022-07-29T11:56:58;5.03;;;2.40;;
5841;SDS011;2947;52.276;9.946;2022-07-29T11:59:24;4.13;;;2.22;;
5841;SDS011;2947;52.276;9.946;2022-07-29T12:01:55;5.43;;;2.42;;
5841;SDS011;2947;52.276;9.946;2022-07-29T12:04:24;11.68;;;2.40;;
5841;SDS011;2947;52.276;9.946;2022-07-29T12:06:51;4.90;;;2.78;;
5841;SDS011;2947;52.276;9.946;2022-07-29T12:09:19;4.93;;;2.47;;
5841;SDS011;2947;52.276;9.946;2022-07-29T12:11:46;7.28;;;2.63;;
5841;SDS011;2947;52.276;9.946;2022-07-29T12:16:54;6.47;;;2.67;;
5841;SDS011;2947;52.276;9.946;2022-07-29T12:19:20;6.13;;;2.72;;
5841;SDS011;2947;52.276;9.946;2022-07-29T12:21:47;5.93;;;3.47;;
5841;SDS011;2947;52.276;9.946;2022-07-29T12:24:15;7.10;;;2.50;;
5841;SDS011;2947;52.276;9.946;2022-07-29T12:26:51;6.20;;;2.80;;
5841;SDS011;2947;52.276;9.946;2022-07-29T12:29:20;8.55;;;2.90;;
5841;SDS011;2947;52.276;9.946;2022-07-29T12:31:47;7.88;;;3.13;;
5841;SDS011;2947;52.276;9.946;2022-07-29T12:34:19;9.50;;;2.55;;
5841;SDS011;2947;52.276;9.946;2022-07-29T12:36:48;6.95;;;2.65;;
5841;SDS011;2947;52.276;9.946;2022-07-29T12:39:18;7.22;;;2.83;;
5841;SDS011;2947;52.276;9.946;2022-07-29T12:41:44;9.98;;;3.30;;
5841;SDS011;2947;52.276;9.946;2022-07-29T12:44:11;9.43;;;2.92;;
5841;SDS011;2947;52.276;9.946;2022-07-29T12:46:37;8.75;;;2.88;;
5841;SDS011;2947;52.276;9.946;2022-07-29T12:49:03;7.80;;;3.15;;
5841;SDS011;2947;52.276;9.946;2022-07-29T12:51:30;13.40;;;3.25;;
5841;SDS011;2947;52.276;9.946;2022-07-29T12:54:02;9.18;;;2.85;;
5841;SDS011;2947;52.276;9.946;2022-07-29T12:56:32;6.15;;;2.65;;
5841;SDS011;2947;52.276;9.946;2022-07-29T12:58:58;5.80;;;2.88;;
5841;SDS011;2947;52.276;9.946;2022-07-29T13:01:24;11.15;;;2.88;;
5841;SDS011;2947;52.276;9.946;2022-07-29T13:03:56;8.45;;;2.95;;
5841;SDS011;2947;52.276;9.946;2022-07-29T13:09:14;7.75;;;2.70;;
5841;SDS011;2947;52.276;9.946;2022-07-29T13:11:51;6.97;;;2.85;;
5841;SDS011;2947;52.276;9.946;2022-07-29T13:14:34;13.32;;;2.78;;
5841;SDS011;2947;52.276;9.946;2022-07-29T13:17:14;8.88;;;3.60;;
5841;SDS011;2947;52.276;9.946;2022-07-29T13:20:04;10.15;;;2.88;;
5841;SDS011;2947;52.276;9.946;2022-07-29T13:22:33;4.22;;;2.80;;
5841;SDS011;2947;52.276;9.946;2022-07-29T13:25:00;5.88;;;2.42;;
5841;SDS011;2947;52.276;9.946;2022-07-29T13:27:30;5.15;;;3.10;;
5841;SDS011;2947;52.276;9.946;2022-07-29T13:29:59;14.43;;;3.63;;
5841;SDS011;2947;52.276;9.946;2022-07-29T13:32:29;7.05;;;2.58;;
5841;SDS011;2947;52.276;9.946;2022-07-29T13:34:56;9.63;;;3.65;;
5841;SDS011;2947;52.276;9.946;2022-07-29T13:37:25;5.05;;;2.80;;
5841;SDS011;2947;52.276;9.946;2022-07-29T13:39:51;5.85;;;2.70;;
5841;SDS011;2947;52.276;9.946;2022-07-29T13:42:19;9.82;;;2.97;;
5841;SDS011;2947;52.276;9.946;2022-07-29T13:44:44;10.70;;;2.97;;
5841;SDS011;2947;52.276;9.946;2022-07-29T13:47:10;7.07;;;2.75;;
5841;SDS011;2947;52.276;9.946;2022-07-29T13:49:36;5.70;;;2.70;;
5841;SDS011;2947;52.276;9.946;2022-07-29T13:52:02;6.10;;;2.25;;
5841;SDS011;2947;52.276;9.946;2022-07-29T13:54:28;6.63;;;2.63;;
5841;SDS011;2947;52.276;9.946;2022-07-29T13:56:54;9.82;;;2.78;;
5841;SDS011;2947;52.276;9.946;2022-07-29T13:59:19;6.22;;;2.60;;
5841;SDS011;2947;52.276;9.946;2022-07-29T14:01:45;6.53;;;3.25;;
5841;SDS011;2947;52.276;9.946;2022-07-29T14:04:11;6.28;;;2.75;;
5841;SDS011;2947;52.276;9.946;2022-07-29T14:06:37;11.52;;;3.55;;
5841;SDS011;2947;52.276;9.946;2022-07-29T14:09:03;5.82;;;2.75;;
5841;SDS011;2947;52.276;9.946;2022-07-29T14:11:33;8.18;;;3.33;;
5841;SDS011;2947;52.276;9.946;2022-07-29T14:14:00;7.60;;;2.92;;
5841;SDS011;2947;52.276;9.946;2022-07-29T14:16:26;9.15;;;3.15;;
5841;SDS011;2947;52.276;9.946;2022-07-29T14:18:52;4.80;;;2.80;;
5841;SDS011;2947;52.276;9.946;2022-07-29T14:21:17;5.18;;;3.28;;
5841;SDS011;2947;52.276;9.946;2022-07-29T14:23:43;6.72;;;3.33;;
5841;SDS011;2947;52.276;9.946;2022-07-29T14:26:09;7.72;;;3.28;;
5841;SDS011;2947;52.276;9.946;2022-07-29T14:28:34;20.58;;;3.60;;
5841;SDS011;2947;52.276;9.946;2022-07-29T14:31:00;5.85;;;3.20;;
5841;SDS011;2947;52.276;9.946;2022-07-29T14:33:26;6.05;;;2.53;;
5841;SDS011;2947;52.276;9.946;2022-07-29T14:35:52;5.32;;;2.90;;
5841;SDS011;2947;52.276;9.946;2022-07-29T14:38:17;13.38;;;2.97;;
5841;SDS011;2947;52.276;9.946;2022-07-29T14:40:43;5.43;;;3.65;;
5841;SDS011;2947;52.276;9.946;2022-07-29T14:43:11;13.35;;;3.10;;
5841;SDS011;2947;52.276;9.946;2022-07-29T14:45:38;10.07;;;3.17;;
5841;SDS011;2947;52.276;9.946;2022-07-29T14:48:05;9.48;;;3.22;;
5841;SDS011;2947;52.276;9.946;2022-07-29T14:50:31;7.07;;;2.85;;
5841;SDS011;2947;52.276;9.946;2022-07-29T14:52:57;6.07;;;2.70;;
5841;SDS011;2947;52.276;9.946;2022-07-29T14:55:23;9.10;;;2.80;;
5841;SDS011;2947;52.276;9.946;2022-07-29T14:57:49;6.60;;;3.35;;
5841;SDS011;2947;52.276;9.946;2022-07-29T15:00:15;3.92;;;2.70;;
5841;SDS011;2947;52.276;9.946;2022-07-29T15:02:42;6.30;;;3.58;;
5841;SDS011;2947;52.276;9.946;2022-07-29T15:05:08;8.50;;;2.97;;
5841;SDS011;2947;52.276;9.946;2022-07-29T15:07:34;7.65;;;3.38;;
5841;SDS011;2947;52.276;9.946;2022-07-29T15:09:59;8.13;;;3.50;;
5841;SDS011;2947;52.276;9.946;2022-07-29T15:12:25;8.23;;;2.65;;
5841;SDS011;2947;52.276;9.946;2022-07-29T15:14:51;6.55;;;3.38;;
5841;SDS011;2947;52.276;9.946;2022-07-29T15:17:17;7.82;;;3.22;;
5841;SDS011;2947;52.276;9.946;2022-07-29T15:19:43;6.68;;;3.55;;
5841;SDS011;2947;52.276;9.946;2022-07-29T15:22:09;7.80;;;3.08;;
5841;SDS011;2947;52.276;9.946;2022-07-29T15:24:34;7.85;;;3.33;;
5841;SDS011;2947;52.276;9.946;2022-07-29T15:27:00;9.20;;;3.45;;
5841;SDS011;2947;52.276;9.946;2022-07-29T15:29:26;8.45;;;3.05;;
5841;SDS011;2947;52.276;9.946;2022-07-29T15:31:52;7.85;;;3.45;;
5841;SDS011;2947;52.276;9.946;2022-07-29T15:34:18;14.57;;;3.67;;
5841;SDS011;2947;52.276;9.946;2022-07-29T15:36:45;5.80;;;2.80;;
5841;SDS011;2947;52.276;9.946;2022-07-29T15:39:11;7.03;;;3.28;;
5841;SDS011;2947;52.276;9.946;2022-07-29T15:41:37;11.80;;;3.15;;
5841;SDS011;2947;52.276;9.946;2022-07-29T15:44:02;4.93;;;2.85;;
5841;SDS011;2947;52.276;9.946;2022-07-29T15:46:28;8.18;;;3.70;;
5841;SDS011;2947;52.276;9.946;2022-07-29T15:49:13;12.48;;;3.97;;
5841;SDS011;2947;52.276;9.946;2022-07-29T15:51:38;3.55;;;2.63;;
5841;SDS011;2947;52.276;9.946;2022-07-29T15:54:04;4.53;;;2.88;;
5841;SDS011;2947;52.276;9.946;2022-07-29T15:56:30;12.48;;;3.00;;
5841;SDS011;2947;52.276;9.946;2022-07-29T15:58:56;9.35;;;3.15;;
5841;SDS011;2947;52.276;9.946;2022-07-29T16:01:22;4.70;;;3.03;;
5841;SDS011;2947;52.276;9.946;2022-07-29T16:03:48;11.93;;;3.25;;
5841;SDS011;2947;52.276;9.946;2022-07-29T16:06:14;4.97;;;2.75;;
5841;SDS011;2947;52.276;9.946;2022-07-29T16:08:41;8.45;;;2.60;;